createdAt,value
2019-03-03T00:01:38.646Z,10.87
2019-03-03T00:04:08.105Z,10.13
2019-03-03T00:06:37.820Z,10.33
2019-03-03T00:09:09.028Z,11.13
2019-03-03T00:11:38.438Z,11.17
2019-03-03T00:14:08.181Z,11.13
2019-03-03T00:16:38.061Z,11.53
2019-03-03T00:19:07.557Z,9.83
2019-03-03T00:21:37.322Z,9.60
2019-03-03T00:24:06.789Z,11.97
2019-03-03T00:26:36.649Z,11.67
2019-03-03T00:29:06.088Z,10.00
2019-03-03T00:31:37.369Z,9.73
2019-03-03T00:34:06.771Z,10.60
2019-03-03T00:37:02.738Z,13.53
2019-03-03T00:39:43.794Z,10.97
2019-03-03T00:42:44.857Z,9.20
2019-03-03T00:45:33.373Z,8.73
2019-03-03T00:48:15.216Z,7.57
2019-03-03T00:50:58.049Z,8.33
2019-03-03T00:53:46.441Z,8.50
2019-03-03T00:56:22.501Z,8.47
2019-03-03T00:59:18.680Z,7.73
2019-03-03T01:02:25.517Z,8.70
2019-03-03T01:04:59.664Z,8.80
2019-03-03T01:07:46.848Z,7.80
2019-03-03T01:10:40.454Z,7.70
2019-03-03T01:13:31.800Z,9.60
2019-03-03T01:16:35.290Z,8.03
2019-03-03T01:19:41.841Z,8.90
2019-03-03T01:22:29.009Z,7.80
2019-03-03T01:24:58.680Z,7.87
2019-03-03T01:27:28.510Z,8.87
2019-03-03T01:29:58.497Z,13.37
2019-03-03T01:32:28.105Z,7.90
2019-03-03T01:34:57.551Z,7.73
2019-03-03T01:37:27.651Z,7.73
2019-03-03T01:39:57.020Z,8.23
2019-03-03T01:42:26.500Z,8.47
2019-03-03T01:44:56.245Z,9.20
2019-03-03T01:47:25.977Z,9.10
2019-03-03T01:49:55.461Z,9.90
2019-03-03T01:52:24.860Z,9.97
2019-03-03T01:54:54.277Z,7.43
2019-03-03T01:57:23.818Z,8.43
2019-03-03T01:59:53.552Z,9.70
2019-03-03T02:02:23.672Z,8.07
2019-03-03T02:04:53.076Z,8.37
2019-03-03T02:07:22.788Z,7.77
2019-03-03T02:09:52.386Z,10.47
2019-03-03T02:12:22.295Z,8.50
2019-03-03T02:14:51.700Z,12.50
2019-03-03T02:17:21.081Z,8.13
2019-03-03T02:19:50.485Z,7.97
2019-03-03T02:22:20.041Z,8.27
2019-03-03T02:24:49.794Z,8.00
2019-03-03T02:27:19.581Z,8.17
2019-03-03T02:29:49.266Z,7.80
2019-03-03T02:32:19.080Z,7.23
2019-03-03T02:34:48.525Z,7.87
2019-03-03T02:37:17.936Z,11.10
2019-03-03T02:39:47.401Z,7.17
2019-03-03T02:42:16.788Z,8.53
2019-03-03T02:44:46.546Z,8.60
2019-03-03T02:47:16.720Z,6.93
2019-03-03T02:49:46.977Z,10.50
2019-03-03T02:52:16.488Z,7.77
2019-03-03T02:54:45.873Z,7.40
2019-03-03T02:57:15.337Z,7.40
2019-03-03T02:59:45.206Z,11.63
2019-03-03T03:02:33.593Z,7.90
2019-03-03T03:05:03.850Z,7.57
2019-03-03T03:07:50.608Z,7.90
2019-03-03T03:10:48.077Z,8.03
2019-03-03T03:13:37.240Z,7.97
2019-03-03T03:16:24.814Z,10.53
2019-03-03T03:19:11.933Z,7.87
2019-03-03T03:22:03.151Z,9.47
2019-03-03T03:24:51.528Z,7.20
2019-03-03T03:27:45.935Z,7.70
2019-03-03T03:30:27.653Z,8.37
2019-03-03T03:33:28.443Z,7.63
2019-03-03T03:36:02.861Z,7.70
2019-03-03T03:38:44.988Z,7.93
2019-03-03T03:41:34.099Z,10.97
2019-03-03T03:44:45.714Z,7.47
2019-03-03T03:47:23.837Z,7.83
2019-03-03T03:50:14.879Z,8.37
2019-03-03T03:53:04.216Z,7.80
2019-03-03T03:55:57.543Z,11.17
2019-03-03T03:58:44.736Z,7.37
2019-03-03T04:01:31.579Z,7.87
2019-03-03T04:04:22.810Z,10.47
2019-03-03T04:07:06.994Z,8.67
2019-03-03T04:10:04.594Z,8.03
2019-03-03T04:12:50.014Z,8.03
2019-03-03T04:15:38.979Z,8.17
2019-03-03T04:18:30.381Z,9.50
2019-03-03T04:21:16.556Z,7.77
2019-03-03T04:24:12.823Z,9.47
2019-03-03T04:27:07.257Z,8.97
2019-03-03T04:30:04.700Z,7.10
2019-03-03T04:32:39.328Z,11.90
2019-03-03T04:35:16.905Z,8.63
2019-03-03T04:38:01.783Z,8.53
2019-03-03T04:40:47.718Z,7.70
2019-03-03T04:43:28.233Z,7.30
2019-03-03T04:46:07.652Z,7.53
2019-03-03T04:49:05.288Z,8.50
2019-03-03T04:51:46.676Z,8.80
2019-03-03T04:54:37.998Z,9.03
2019-03-03T04:57:35.425Z,9.57
2019-03-03T05:00:27.129Z,7.50
2019-03-03T05:03:30.803Z,8.30
2019-03-03T05:06:19.104Z,11.20
2019-03-03T05:08:53.701Z,7.83
2019-03-03T05:12:30.149Z,8.37
2019-03-03T05:15:05.677Z,7.80
2019-03-03T05:17:45.365Z,9.60
2019-03-03T05:20:14.753Z,9.90
2019-03-03T05:22:44.526Z,7.57
2019-03-03T05:25:13.963Z,8.23
2019-03-03T05:27:43.752Z,7.50
2019-03-03T05:30:13.864Z,7.50
2019-03-03T05:32:43.773Z,7.77
2019-03-03T05:35:13.156Z,11.70
2019-03-03T05:37:42.524Z,7.60
2019-03-03T05:40:12.389Z,8.07
2019-03-03T05:42:41.782Z,10.20
2019-03-03T05:45:11.188Z,10.00
2019-03-03T05:47:40.904Z,10.60
2019-03-03T05:50:10.621Z,8.17
2019-03-03T05:52:40.313Z,11.00
2019-03-03T05:55:10.037Z,9.43
2019-03-03T05:57:39.884Z,7.30
2019-03-03T06:00:09.881Z,8.30
2019-03-03T06:02:39.686Z,8.13
2019-03-03T06:05:09.169Z,11.13
2019-03-03T06:07:38.559Z,12.23
2019-03-03T06:10:08.402Z,8.17
2019-03-03T06:12:37.952Z,12.80
2019-03-03T06:15:09.102Z,7.33
2019-03-03T06:17:38.861Z,10.27
2019-03-03T06:20:09.496Z,7.87
2019-03-03T06:22:39.433Z,9.70
2019-03-03T06:25:09.006Z,7.97
2019-03-03T06:27:38.508Z,12.53
2019-03-03T06:30:09.797Z,9.33
2019-03-03T06:32:39.649Z,10.13
2019-03-03T06:35:09.818Z,9.13
2019-03-03T06:37:39.256Z,7.97
2019-03-03T06:40:09.586Z,8.90
2019-03-03T06:42:39.350Z,9.87
2019-03-03T06:45:10.329Z,8.80
2019-03-03T06:47:40.036Z,11.07
2019-03-03T06:50:11.060Z,8.43
2019-03-03T06:52:40.515Z,8.87
2019-03-03T06:55:11.074Z,10.37
2019-03-03T06:57:40.607Z,9.50
2019-03-03T07:00:13.786Z,9.23
2019-03-03T07:02:43.248Z,9.40
2019-03-03T07:05:12.901Z,10.27
2019-03-03T07:07:42.797Z,11.03
2019-03-03T07:10:13.732Z,12.47
2019-03-03T07:12:43.584Z,10.53
2019-03-03T07:15:14.797Z,12.93
2019-03-03T07:17:44.212Z,11.63
2019-03-03T07:20:13.845Z,13.50
2019-03-03T07:22:43.730Z,11.57
2019-03-03T07:25:13.534Z,12.60
2019-03-03T07:27:43.113Z,13.23
2019-03-03T07:30:16.336Z,13.00
2019-03-03T07:33:03.970Z,11.27
2019-03-03T07:35:33.877Z,12.70
2019-03-03T07:38:03.712Z,11.33
2019-03-03T07:40:34.078Z,16.63
2019-03-03T07:43:03.641Z,18.70
2019-03-03T07:45:33.770Z,13.50
2019-03-03T07:48:03.654Z,11.57
2019-03-03T07:50:33.564Z,10.83
2019-03-03T07:53:02.963Z,10.27
2019-03-03T07:55:32.758Z,12.87
2019-03-03T07:58:02.217Z,13.83
2019-03-03T08:00:31.716Z,12.97
2019-03-03T08:03:01.097Z,15.40
2019-03-03T08:05:30.758Z,10.83
2019-03-03T08:08:00.231Z,12.37
2019-03-03T08:10:30.128Z,15.23
2019-03-03T08:13:08.904Z,10.60
2019-03-03T08:15:31.288Z,10.17
2019-03-03T08:18:01.129Z,16.77
2019-03-03T08:20:30.614Z,13.67
2019-03-03T08:23:00.132Z,9.17
2019-03-03T08:25:29.565Z,9.90
2019-03-03T08:27:58.969Z,12.37
2019-03-03T08:30:28.363Z,9.57
2019-03-03T08:32:57.887Z,11.67
2019-03-03T08:35:27.696Z,10.40
2019-03-03T08:37:57.393Z,13.93
2019-03-03T08:40:26.832Z,13.57
2019-03-03T08:43:14.295Z,11.47
2019-03-03T08:46:05.665Z,14.13
2019-03-03T08:48:57.501Z,10.07
2019-03-03T08:51:44.968Z,11.30
2019-03-03T08:54:27.938Z,13.00
2019-03-03T08:57:16.593Z,14.27
2019-03-03T09:00:14.164Z,14.50
2019-03-03T09:03:11.757Z,13.57
2019-03-03T09:06:06.166Z,16.60
2019-03-03T09:08:53.533Z,16.57
2019-03-03T09:11:35.149Z,13.93
2019-03-03T09:14:22.477Z,15.07
2019-03-03T09:17:10.887Z,14.77
2019-03-03T09:20:14.732Z,16.03
2019-03-03T09:23:11.962Z,18.80
2019-03-03T09:25:57.514Z,19.80
2019-03-03T09:28:57.947Z,20.27
2019-03-03T09:31:45.174Z,20.37
2019-03-03T09:34:32.949Z,19.40
2019-03-03T09:37:11.114Z,19.10
2019-03-03T09:39:53.275Z,21.93
2019-03-03T09:42:44.442Z,19.70
2019-03-03T09:45:28.639Z,22.10
2019-03-03T09:48:14.477Z,21.40
2019-03-03T09:51:09.903Z,19.03
2019-03-03T09:54:10.629Z,22.17
2019-03-03T09:57:01.692Z,19.73
2019-03-03T09:59:44.529Z,20.77
2019-03-03T10:02:22.396Z,20.57
2019-03-03T10:05:11.105Z,21.60
2019-03-03T10:07:55.377Z,18.67
2019-03-03T10:10:37.533Z,20.03
2019-03-03T10:13:32.064Z,19.83
2019-03-03T10:16:26.765Z,20.77
2019-03-03T10:19:24.345Z,20.30
2019-03-03T10:22:15.744Z,19.87
2019-03-03T10:24:57.812Z,19.63
2019-03-03T10:27:46.243Z,20.40
2019-03-03T10:30:40.997Z,20.10
2019-03-03T10:33:38.990Z,18.97
2019-03-03T10:36:27.388Z,17.00
2019-03-03T10:39:25.192Z,18.87
2019-03-03T10:42:13.607Z,17.90
2019-03-03T10:45:05.538Z,19.03
2019-03-03T10:48:06.028Z,17.73
2019-03-03T10:50:48.659Z,17.23
2019-03-03T10:53:42.486Z,17.77
2019-03-03T10:56:37.030Z,18.03
2019-03-03T10:59:19.313Z,16.83
2019-03-03T11:02:01.278Z,16.07
2019-03-03T11:04:46.429Z,17.63
2019-03-03T11:07:34.833Z,16.10
2019-03-03T11:10:29.585Z,15.63
2019-03-03T11:13:09.997Z,16.23
2019-03-03T11:15:50.673Z,17.90
2019-03-03T11:18:45.308Z,15.40
2019-03-03T11:21:30.285Z,14.10
2019-03-03T11:24:31.894Z,14.50
2019-03-03T11:27:23.218Z,14.07
2019-03-03T11:30:14.602Z,14.53
2019-03-03T11:33:02.034Z,15.00
2019-03-03T11:35:45.705Z,13.83
2019-03-03T11:38:27.274Z,15.47
2019-03-03T11:41:21.584Z,12.83
2019-03-03T11:44:16.114Z,13.23
2019-03-03T11:46:55.134Z,12.17
2019-03-03T11:49:30.989Z,13.23
2019-03-03T11:52:18.660Z,12.80
2019-03-03T11:55:13.458Z,14.27
2019-03-03T11:57:49.017Z,12.70
2019-03-03T12:00:36.382Z,14.33
2019-03-03T12:03:39.847Z,12.73
2019-03-03T12:06:29.399Z,12.47
2019-03-03T12:09:10.718Z,12.63
2019-03-03T12:11:58.593Z,13.57
2019-03-03T12:14:56.264Z,14.27
2019-03-03T12:17:44.061Z,13.63
2019-03-03T12:20:41.208Z,14.07
2019-03-03T12:23:35.701Z,13.60
2019-03-03T12:26:15.549Z,12.90
2019-03-03T12:29:02.234Z,13.37
2019-03-03T12:31:53.497Z,14.67
2019-03-03T12:34:48.229Z,12.13
2019-03-03T12:37:35.313Z,13.03
2019-03-03T12:40:23.156Z,12.33
2019-03-03T12:43:24.020Z,14.07
2019-03-03T12:46:27.490Z,13.23
2019-03-03T12:49:04.413Z,13.60
2019-03-03T12:51:55.569Z,13.13
2019-03-03T12:54:53.024Z,13.10
2019-03-03T12:57:59.562Z,13.57
2019-03-03T13:01:03.646Z,14.20
2019-03-03T13:03:40.687Z,12.83
2019-03-03T13:06:24.360Z,14.43
2019-03-03T13:09:11.579Z,16.43
2019-03-03T13:12:08.959Z,13.67
2019-03-03T13:14:56.454Z,14.77
2019-03-03T13:17:47.990Z,13.83
2019-03-03T13:20:19.988Z,15.13
2019-03-03T13:23:08.333Z,13.70
2019-03-03T13:25:53.878Z,16.47
2019-03-03T13:28:48.530Z,13.83
2019-03-03T13:31:27.640Z,14.07
2019-03-03T13:34:19.708Z,11.63
2019-03-03T13:36:59.106Z,14.57
2019-03-03T13:39:46.514Z,11.80
2019-03-03T13:42:41.756Z,13.70
2019-03-03T13:45:12.357Z,14.07
2019-03-03T13:47:41.796Z,12.33
2019-03-03T13:50:13.969Z,14.07
2019-03-03T13:52:43.511Z,16.20
2019-03-03T13:55:13.225Z,15.70
2019-03-03T13:57:42.730Z,15.37
2019-03-03T14:00:15.087Z,12.70
2019-03-03T14:02:44.906Z,12.00
2019-03-03T14:05:15.733Z,14.37
2019-03-03T14:07:46.593Z,12.40
2019-03-03T14:10:16.403Z,13.90
2019-03-03T14:12:45.885Z,14.30
2019-03-03T14:15:18.681Z,10.70
2019-03-03T14:17:49.746Z,14.80
2019-03-03T14:20:23.293Z,14.27
2019-03-03T14:22:53.667Z,14.97
2019-03-03T14:25:23.484Z,12.53
2019-03-03T14:27:52.959Z,10.63
2019-03-03T14:30:24.002Z,13.30
2019-03-03T14:32:53.480Z,11.07
2019-03-03T14:35:22.959Z,14.63
2019-03-03T14:37:52.445Z,12.93
2019-03-03T14:40:22.627Z,13.77
2019-03-03T14:42:52.100Z,13.40
2019-03-03T14:45:21.642Z,14.57
2019-03-03T14:47:51.608Z,14.20
2019-03-03T14:50:21.298Z,14.27
2019-03-03T14:52:52.213Z,11.00
2019-03-03T14:55:22.051Z,12.23
2019-03-03T14:57:51.529Z,11.47
2019-03-03T15:00:27.244Z,10.93
2019-03-03T15:02:57.362Z,11.47
2019-03-03T15:05:26.889Z,10.80
2019-03-03T15:07:56.479Z,14.47
2019-03-03T15:10:26.596Z,10.87
2019-03-03T15:12:56.161Z,11.10
2019-03-03T15:15:26.513Z,13.77
2019-03-03T15:17:57.227Z,13.77
2019-03-03T15:20:27.302Z,14.17
2019-03-03T15:22:57.873Z,12.50
2019-03-03T15:25:28.373Z,11.77
2019-03-03T15:27:58.162Z,12.03
2019-03-03T15:30:27.961Z,13.10
2019-03-03T15:32:57.364Z,10.83
2019-03-03T15:35:26.854Z,10.47
2019-03-03T15:37:56.857Z,10.03
2019-03-03T15:40:27.239Z,9.73
2019-03-03T15:42:56.722Z,10.60
2019-03-03T15:45:26.315Z,12.90
2019-03-03T15:47:55.909Z,10.97
2019-03-03T15:50:25.945Z,10.23
2019-03-03T15:52:55.703Z,8.93
2019-03-03T15:55:25.139Z,8.80
2019-03-03T15:57:54.633Z,8.60
2019-03-03T16:00:26.184Z,8.50
2019-03-03T16:02:56.221Z,9.93
2019-03-03T16:05:25.733Z,7.73
2019-03-03T16:07:55.823Z,8.10
2019-03-03T16:10:25.648Z,8.23
2019-03-03T16:12:55.878Z,8.37
2019-03-03T16:15:26.194Z,7.90
2019-03-03T16:17:56.409Z,10.67
2019-03-03T16:20:25.913Z,7.47
2019-03-03T16:22:55.397Z,8.77
2019-03-03T16:25:24.980Z,6.83
2019-03-03T16:27:54.710Z,8.07
2019-03-03T16:30:24.788Z,8.77
2019-03-03T16:32:54.573Z,8.27
2019-03-03T16:35:24.386Z,8.60
2019-03-03T16:37:53.865Z,7.83
2019-03-03T16:40:23.624Z,8.50
2019-03-03T16:42:53.013Z,7.50
2019-03-03T16:45:23.008Z,8.83
2019-03-03T16:47:52.456Z,8.73
2019-03-03T16:50:21.966Z,11.87
2019-03-03T16:52:51.845Z,9.73
2019-03-03T16:55:21.512Z,10.20
2019-03-03T16:57:51.373Z,8.77
2019-03-03T17:00:21.686Z,14.77
2019-03-03T17:02:51.341Z,9.27
2019-03-03T17:05:21.452Z,9.10
2019-03-03T17:07:51.154Z,14.97
2019-03-03T17:10:21.257Z,8.93
2019-03-03T17:12:51.249Z,8.77
2019-03-03T17:15:21.714Z,10.23
2019-03-03T17:17:51.489Z,9.77
2019-03-03T17:20:21.235Z,9.50
2019-03-03T17:22:50.685Z,9.67
2019-03-03T17:25:21.453Z,9.77
2019-03-03T17:27:53.194Z,9.63
2019-03-03T17:30:23.211Z,8.43
2019-03-03T17:32:52.744Z,10.50
2019-03-03T17:35:22.169Z,11.13
2019-03-03T17:37:51.581Z,9.67
2019-03-03T17:40:21.230Z,10.40
2019-03-03T17:42:51.077Z,10.73
2019-03-03T17:45:21.345Z,10.10
2019-03-03T17:47:51.326Z,10.30
2019-03-03T17:50:21.568Z,8.87
2019-03-03T17:52:51.051Z,9.60
2019-03-03T17:55:20.477Z,9.87
2019-03-03T17:57:50.085Z,12.37
2019-03-03T18:00:21.700Z,10.97
2019-03-03T18:02:51.197Z,9.43
2019-03-03T18:05:20.936Z,10.00
2019-03-03T18:07:50.724Z,9.13
2019-03-03T18:10:20.437Z,9.07
2019-03-03T18:12:50.953Z,9.00
2019-03-03T18:15:20.453Z,10.23
2019-03-03T18:17:55.716Z,9.57
2019-03-03T18:20:25.213Z,10.07
2019-03-03T18:22:55.265Z,10.60
2019-03-03T18:25:25.466Z,11.13
2019-03-03T18:27:55.274Z,13.63
2019-03-03T18:30:24.994Z,11.30
2019-03-03T18:32:54.442Z,11.43
2019-03-03T18:35:23.967Z,9.97
2019-03-03T18:37:54.916Z,12.20
2019-03-03T18:40:25.253Z,10.47
2019-03-03T18:42:54.708Z,13.23
2019-03-03T18:45:24.484Z,9.90
2019-03-03T18:47:54.020Z,9.57
2019-03-03T18:50:23.451Z,10.70
2019-03-03T18:52:52.972Z,9.03
2019-03-03T18:55:23.023Z,17.60
2019-03-03T18:57:52.801Z,9.77
2019-03-03T19:00:23.610Z,9.30
2019-03-03T19:02:53.753Z,10.50
2019-03-03T19:05:23.597Z,10.23
2019-03-03T19:07:53.277Z,10.13
2019-03-03T19:10:25.053Z,11.20
2019-03-03T19:12:54.983Z,9.90
2019-03-03T19:15:24.861Z,9.93
2019-03-03T19:17:55.482Z,9.43
2019-03-03T19:20:25.482Z,15.23
2019-03-03T19:22:55.224Z,9.43
2019-03-03T19:25:25.260Z,9.83
2019-03-03T19:27:54.710Z,8.80
2019-03-03T19:30:25.409Z,11.37
2019-03-03T19:32:59.434Z,9.40
2019-03-03T19:35:29.249Z,9.37
2019-03-03T19:37:59.232Z,9.93
2019-03-03T19:40:29.295Z,9.63
2019-03-03T19:42:58.913Z,11.13
2019-03-03T19:45:30.425Z,10.07
2019-03-03T19:47:59.976Z,9.80
2019-03-03T19:50:29.845Z,9.47
2019-03-03T19:52:59.857Z,11.60
2019-03-03T19:55:29.697Z,9.47
2019-03-03T19:57:59.916Z,9.80
2019-03-03T20:00:39.366Z,9.67
2019-03-03T20:03:09.239Z,9.73
2019-03-03T20:05:41.535Z,9.17
2019-03-03T20:08:13.002Z,9.27
2019-03-03T20:10:42.574Z,9.63
2019-03-03T20:13:12.658Z,10.07
2019-03-03T20:15:42.684Z,12.47
2019-03-03T20:18:12.482Z,10.23
2019-03-03T20:20:42.023Z,9.70
2019-03-03T20:23:13.888Z,9.90
2019-03-03T20:25:43.375Z,9.67
2019-03-03T20:28:13.215Z,9.80
2019-03-03T20:30:43.992Z,9.57
2019-03-03T20:33:15.016Z,8.83
2019-03-03T20:35:45.190Z,8.27
2019-03-03T20:38:15.906Z,9.07
2019-03-03T20:40:45.678Z,9.17
2019-03-03T20:43:16.014Z,9.20
2019-03-03T20:45:45.751Z,8.97
2019-03-03T20:48:15.709Z,8.27
2019-03-03T20:50:45.717Z,8.37
2019-03-03T20:53:15.621Z,8.63
2019-03-03T20:55:45.553Z,8.47
2019-03-03T20:58:15.335Z,9.23
2019-03-03T21:00:45.072Z,8.20
2019-03-03T21:03:14.474Z,9.23
2019-03-03T21:05:46.192Z,8.53
2019-03-03T21:08:16.362Z,8.27
2019-03-03T21:10:45.813Z,8.63
2019-03-03T21:13:15.577Z,8.43
2019-03-03T21:15:45.122Z,8.57
2019-03-03T21:18:14.594Z,8.07
2019-03-03T21:20:43.972Z,7.90
2019-03-03T21:23:13.372Z,8.30
2019-03-03T21:25:42.762Z,8.20
2019-03-03T21:28:12.440Z,7.70
2019-03-03T21:30:42.318Z,8.17
2019-03-03T21:33:12.461Z,7.87
2019-03-03T21:35:41.854Z,8.40
2019-03-03T21:38:11.318Z,8.10
2019-03-03T21:40:40.715Z,8.13
2019-03-03T21:43:10.185Z,8.30
2019-03-03T21:45:39.966Z,7.97
2019-03-03T21:48:09.752Z,7.33
2019-03-03T21:50:39.170Z,7.33
2019-03-03T21:53:08.998Z,7.60
2019-03-03T21:55:38.858Z,7.37
2019-03-03T21:58:08.344Z,7.63
2019-03-03T22:00:38.715Z,7.73
2019-03-03T22:03:08.399Z,7.10
2019-03-03T22:05:37.876Z,7.23
2019-03-03T22:08:07.662Z,7.87
2019-03-03T22:10:37.140Z,8.20
2019-03-03T22:13:14.157Z,7.93
2019-03-03T22:15:43.638Z,7.80
2019-03-03T22:18:13.801Z,7.13
2019-03-03T22:20:43.513Z,8.03
2019-03-03T22:23:13.073Z,7.87
2019-03-03T22:25:42.561Z,7.87
2019-03-03T22:28:17.665Z,7.80
2019-03-03T22:30:47.172Z,8.33
2019-03-03T22:33:16.757Z,8.10
2019-03-03T22:35:46.761Z,7.70
2019-03-03T22:38:16.401Z,7.97
2019-03-03T22:40:46.241Z,7.60
2019-03-03T22:43:16.296Z,7.63
2019-03-03T22:45:46.017Z,7.33
2019-03-03T22:48:15.821Z,7.90
2019-03-03T22:50:45.356Z,7.37
2019-03-03T22:53:14.840Z,8.13
2019-03-03T22:55:44.233Z,7.77
2019-03-03T22:58:14.013Z,8.23
2019-03-03T23:01:04.357Z,8.20
2019-03-03T23:03:38.547Z,8.00
2019-03-03T23:06:45.127Z,7.57
2019-03-03T23:09:39.142Z,8.37
2019-03-03T23:12:48.388Z,7.30
2019-03-03T23:16:00.491Z,7.80
2019-03-03T23:19:06.736Z,8.03
2019-03-03T23:22:08.173Z,7.33
2019-03-03T23:25:13.699Z,8.07
2019-03-03T23:27:43.467Z,8.60
2019-03-03T23:30:12.949Z,7.83
2019-03-03T23:32:42.358Z,7.93
2019-03-03T23:35:11.834Z,8.30
2019-03-03T23:37:41.562Z,8.07
2019-03-03T23:40:11.737Z,8.77
2019-03-03T23:42:41.132Z,7.93
2019-03-03T23:45:10.685Z,8.03
2019-03-03T23:47:40.145Z,8.10
2019-03-03T23:50:09.630Z,7.93
2019-03-03T23:52:39.047Z,8.60
2019-03-03T23:55:08.903Z,7.60
2019-03-03T23:57:38.313Z,8.83
